Time,TemperatureF,DewpointF,PressureIn,WindDirection,WindDirectionDegrees,WindSpeedMPH,WindSpeedGustMPH,Humidity,HourlyPrecipIn,Conditions,Clouds,dailyrainin,SoftwareType,DateUTC
2013-05-07 00:23:00,59.0,56.0,-100.00,West,269,5.0,-999.0,87,0.00,,,-99.99,,2013-05-07 04:23:00,
2013-05-07 00:33:00,59.0,56.0,-100.00,West,269,5.0,-999.0,87,0.00,,,-99.99,,2013-05-07 04:33:00,
2013-05-07 00:42:00,59.0,56.0,-100.00,West,269,5.0,-999.0,87,0.00,,,-99.99,,2013-05-07 04:42:00,
2013-05-07 01:22:00,58.0,54.0,-100.00,West,275,6.0,-999.0,84,0.00,,,-99.99,,2013-05-07 05:22:00,
2013-05-07 01:32:00,58.0,54.0,-100.00,West,275,6.0,-999.0,84,0.00,,,-99.99,,2013-05-07 05:32:00,
2013-05-07 01:42:00,58.0,54.0,-100.00,West,275,6.0,-999.0,84,0.00,,,-99.99,,2013-05-07 05:42:00,
2013-05-07 02:22:00,58.0,53.0,-100.00,WNW,292,6.0,-999.0,82,0.00,,,-99.99,,2013-05-07 06:22:00,
2013-05-07 02:32:00,58.0,53.0,-100.00,WNW,292,6.0,-999.0,82,0.00,,,-99.99,,2013-05-07 06:32:00,
2013-05-07 02:42:00,58.0,53.0,-100.00,WNW,292,6.0,-999.0,82,0.00,,,-99.99,,2013-05-07 06:42:00,
2013-05-07 03:22:00,58.0,52.0,-100.00,WNW,294,6.0,-999.0,80,0.00,,,-99.99,,2013-05-07 07:22:00,
2013-05-07 03:32:00,58.0,52.0,-100.00,WNW,294,6.0,-999.0,80,0.00,,,-99.99,,2013-05-07 07:32:00,
2013-05-07 03:42:00,58.0,52.0,-100.00,WNW,294,6.0,-999.0,80,0.00,,,-99.99,,2013-05-07 07:42:00,
2013-05-07 04:22:00,57.0,51.0,-100.00,NW,304,5.0,-999.0,80,0.00,,,-99.99,,2013-05-07 08:22:00,
2013-05-07 04:32:00,57.0,51.0,-100.00,NW,304,5.0,-999.0,80,0.00,,,-99.99,,2013-05-07 08:32:00,
2013-05-07 04:42:00,57.0,51.0,-100.00,NW,304,5.0,-999.0,80,0.00,,,-99.99,,2013-05-07 08:42:00,
2013-05-07 05:23:00,57.0,52.0,-100.00,NW,308,3.0,-999.0,83,0.00,,,-99.99,,2013-05-07 09:23:00,
2013-05-07 05:33:00,57.0,52.0,-100.00,NW,308,3.0,-999.0,83,0.00,,,-99.99,,2013-05-07 09:33:00,
2013-05-07 05:43:00,57.0,52.0,-100.00,NW,308,3.0,-999.0,83,0.00,,,-99.99,,2013-05-07 09:43:00,
2013-05-07 06:23:00,56.0,52.0,-100.00,NW,304,3.0,-999.0,86,0.00,,,-99.99,,2013-05-07 10:23:00,
2013-05-07 06:32:00,56.0,52.0,-100.00,NW,304,3.0,-999.0,86,0.00,,,-99.99,,2013-05-07 10:32:00,
2013-05-07 06:42:00,56.0,52.0,-100.00,NW,304,3.0,-999.0,86,0.00,,,-99.99,,2013-05-07 10:42:00,
2013-05-07 07:22:00,57.0,53.0,-100.00,WNW,282,1.0,-999.0,86,0.00,,,-99.99,,2013-05-07 11:22:00,
2013-05-07 07:32:00,57.0,53.0,-100.00,WNW,282,1.0,-999.0,86,0.00,,,-99.99,,2013-05-07 11:32:00,
2013-05-07 07:42:00,57.0,53.0,-100.00,WNW,282,1.0,-999.0,86,0.00,,,-99.99,,2013-05-07 11:42:00,
2013-05-07 08:22:00,58.0,54.0,-100.00,WNW,291,3.0,-999.0,87,0.00,,,-99.99,,2013-05-07 12:22:00,
2013-05-07 08:32:00,58.0,54.0,-100.00,WNW,291,3.0,-999.0,87,0.00,,,-99.99,,2013-05-07 12:32:00,
2013-05-07 08:42:00,58.0,54.0,-100.00,WNW,291,3.0,-999.0,87,0.00,,,-99.99,,2013-05-07 12:42:00,
2013-05-07 09:22:00,61.0,53.0,-100.00,West,271,4.0,-999.0,74,0.00,,,-99.99,,2013-05-07 13:22:00,
2013-05-07 09:32:00,61.0,53.0,-100.00,West,271,4.0,-999.0,74,0.00,,,-99.99,,2013-05-07 13:32:00,
2013-05-07 09:42:00,61.0,53.0,-100.00,West,271,4.0,-999.0,74,0.00,,,-99.99,,2013-05-07 13:42:00,
2013-05-07 10:22:00,64.0,50.0,-100.00,WSW,252,4.0,-999.0,60,0.00,,,-99.99,,2013-05-07 14:22:00,
2013-05-07 10:32:00,64.0,50.0,-100.00,WSW,252,4.0,-999.0,60,0.00,,,-99.99,,2013-05-07 14:32:00,
2013-05-07 10:42:00,64.0,50.0,-100.00,WSW,252,4.0,-999.0,60,0.00,,,-99.99,,2013-05-07 14:42:00,
2013-05-07 11:22:00,65.0,49.0,-100.00,SW,230,6.0,-999.0,56,0.00,,,-99.99,,2013-05-07 15:22:00,
2013-05-07 11:33:00,65.0,49.0,-100.00,SW,230,6.0,-999.0,56,0.00,,,-99.99,,2013-05-07 15:33:00,
2013-05-07 11:42:00,65.0,49.0,-100.00,SW,230,6.0,-999.0,56,0.00,,,-99.99,,2013-05-07 15:42:00,
2013-05-07 12:22:00,64.0,54.0,-100.00,South,184,8.0,-999.0,68,0.00,,,-99.99,,2013-05-07 16:22:00,
2013-05-07 12:32:00,64.0,54.0,-100.00,South,184,8.0,-999.0,68,0.00,,,-99.99,,2013-05-07 16:32:00,
2013-05-07 12:42:00,64.0,54.0,-100.00,South,184,8.0,-999.0,68,0.00,,,-99.99,,2013-05-07 16:42:00,
2013-05-07 13:21:00,60.0,57.0,-100.00,SW,234,6.0,-999.0,89,0.07,,,-99.99,,2013-05-07 17:21:00,
2013-05-07 13:32:00,60.0,57.0,-100.00,SW,234,6.0,-999.0,89,0.07,,,-99.99,,2013-05-07 17:32:00,
2013-05-07 13:41:00,60.0,57.0,-100.00,SW,234,6.0,-999.0,89,0.07,,,-99.99,,2013-05-07 17:41:00,
2013-05-07 14:21:00,64.0,54.0,-100.00,SSW,193,12.0,-999.0,69,0.01,,,-99.99,,2013-05-07 18:21:00,
2013-05-07 14:32:00,64.0,54.0,-100.00,SSW,193,12.0,-999.0,69,0.01,,,-99.99,,2013-05-07 18:32:00,
2013-05-07 14:42:00,64.0,54.0,-100.00,SSW,193,12.0,-999.0,69,0.01,,,-99.99,,2013-05-07 18:42:00,
2013-05-07 15:11:00,66.0,55.0,-100.00,SSW,197,12.0,-999.0,69,0.00,,,-99.99,,2013-05-07 19:11:00,
2013-05-07 15:22:00,66.0,55.0,-100.00,SSW,197,12.0,-999.0,69,0.00,,,-99.99,,2013-05-07 19:22:00,
2013-05-07 15:32:00,66.0,55.0,-100.00,SSW,197,12.0,-999.0,69,0.00,,,-99.99,,2013-05-07 19:32:00,
2013-05-07 15:42:00,66.0,55.0,-100.00,SSW,197,12.0,-999.0,69,0.00,,,-99.99,,2013-05-07 19:42:00,
2013-05-07 16:22:00,67.0,56.0,-100.00,SSW,198,13.0,-999.0,68,0.00,,,-99.99,,2013-05-07 20:22:00,
2013-05-07 16:32:00,67.0,56.0,-100.00,SSW,198,13.0,-999.0,68,0.00,,,-99.99,,2013-05-07 20:32:00,
2013-05-07 16:42:00,67.0,56.0,-100.00,SSW,198,13.0,-999.0,68,0.00,,,-99.99,,2013-05-07 20:42:00,
2013-05-07 17:22:00,61.0,54.0,-100.00,NNW,332,9.0,-999.0,79,0.01,,,-99.99,,2013-05-07 21:22:00,
2013-05-07 17:33:00,61.0,54.0,-100.00,NNW,332,9.0,-999.0,79,0.01,,,-99.99,,2013-05-07 21:33:00,
2013-05-07 17:42:00,61.0,54.0,-100.00,NNW,332,9.0,-999.0,79,0.01,,,-99.99,,2013-05-07 21:42:00,
2013-05-07 18:22:00,60.0,56.0,-100.00,ESE,106,6.0,-999.0,86,0.05,,,-99.99,,2013-05-07 22:22:00,
2013-05-07 18:33:00,60.0,56.0,-100.00,ESE,106,6.0,-999.0,86,0.05,,,-99.99,,2013-05-07 22:33:00,
2013-05-07 18:42:00,60.0,56.0,-100.00,ESE,106,6.0,-999.0,86,0.05,,,-99.99,,2013-05-07 22:42:00,
2013-05-07 19:12:00,63.0,58.0,-100.00,SSE,153,3.0,-999.0,85,0.00,,,-99.99,,2013-05-07 23:12:00,
2013-05-07 19:22:00,63.0,58.0,-100.00,SSE,153,3.0,-999.0,85,0.00,,,-99.99,,2013-05-07 23:22:00,
2013-05-07 19:32:00,63.0,58.0,-100.00,SSE,153,3.0,-999.0,85,0.00,,,-99.99,,2013-05-07 23:32:00,
2013-05-07 19:42:00,63.0,58.0,-100.00,SSE,153,3.0,-999.0,85,0.00,,,-99.99,,2013-05-07 23:42:00,
2013-05-07 20:12:00,62.0,59.0,-100.00,West,261,6.0,-999.0,88,0.01,,,-99.99,,2013-05-08 00:12:00,
2013-05-07 20:22:00,62.0,59.0,-100.00,West,261,6.0,-999.0,88,0.01,,,-99.99,,2013-05-08 00:22:00,
2013-05-07 20:32:00,62.0,59.0,-100.00,West,261,6.0,-999.0,88,0.01,,,-99.99,,2013-05-08 00:32:00,
2013-05-07 20:42:00,62.0,59.0,-100.00,West,261,6.0,-999.0,88,0.01,,,-99.99,,2013-05-08 00:42:00,
2013-05-07 21:11:00,62.0,60.0,-100.00,WSW,241,6.0,-999.0,93,0.00,,,-99.99,,2013-05-08 01:11:00,
2013-05-07 21:22:00,62.0,60.0,-100.00,WSW,241,6.0,-999.0,93,0.00,,,-99.99,,2013-05-08 01:22:00,
2013-05-07 21:32:00,62.0,60.0,-100.00,WSW,241,6.0,-999.0,93,0.00,,,-99.99,,2013-05-08 01:32:00,
2013-05-07 21:42:00,62.0,60.0,-100.00,WSW,241,6.0,-999.0,93,0.00,,,-99.99,,2013-05-08 01:42:00,
2013-05-07 22:12:00,61.0,58.0,-100.00,WSW,241,5.0,-999.0,91,0.00,,,-99.99,,2013-05-08 02:12:00,
2013-05-07 22:22:00,61.0,58.0,-100.00,WSW,241,5.0,-999.0,91,0.00,,,-99.99,,2013-05-08 02:22:00,
2013-05-07 22:32:00,61.0,58.0,-100.00,WSW,241,5.0,-999.0,91,0.00,,,-99.99,,2013-05-08 02:32:00,
2013-05-07 22:42:00,61.0,58.0,-100.00,WSW,241,5.0,-999.0,91,0.00,,,-99.99,,2013-05-08 02:42:00,
2013-05-07 23:11:00,61.0,59.0,-100.00,WSW,244,3.0,-999.0,93,0.00,,,-99.99,,2013-05-08 03:11:00,
2013-05-07 23:22:00,61.0,59.0,-100.00,WSW,244,3.0,-999.0,93,0.00,,,-99.99,,2013-05-08 03:22:00,
2013-05-07 23:33:00,61.0,59.0,-100.00,WSW,244,3.0,-999.0,93,0.00,,,-99.99,,2013-05-08 03:33:00,
2013-05-07 23:43:00,61.0,59.0,-100.00,WSW,244,3.0,-999.0,93,0.00,,,-99.99,,2013-05-08 03:43:00,